Latest Weather Observations for Warwick

IDQ60901

Issued at 7:11 pm EST Sunday 26 March 2017 (issued every 10 minutes, with the page automatically refreshed every 10 minutes)

About weather observations | Map of Brisbane area stations | Latest observations for Brisbane area | Other Formats
Station Details ID: 041525 Name: WARWICK Lat: -28.21 Lon: 152.10 Height: 475.4 m
Data from the previous 72 hours. | See also: Recent months at Warwick
Date/Time
EST
Temp
°C
App
Temp
°C
Dew
Point
°C
Rel
Hum
%
Delta-T
°C
Wind Press
QNH
hPa
Press
MSL
hPa
Rain since
9am
mm
Dir  Spd
km/h
Gust
km/h
Spd
kts
Gust
kts
26/07:00pm 23.9 25.8 18.6 72 3.4 ENE 6 7 3 4 1015.3 1013.0 0.0
26/06:30pm 24.3 27.3 18.4 69 3.8 CALM 0 6 0 3 1014.9 1012.7 0.0
26/06:00pm 25.4 25.7 17.0 59 5.3 SE 11 15 6 8 1014.7 1012.5 0.0
26/05:30pm 25.9 27.4 18.0 61 5.1 SE 7 17 4 9 1014.3 1012.1 0.0
26/05:00pm 26.8 26.0 17.2 55 6.1 SSE 17 24 9 13 1014.2 1012.0 0.0
26/04:30pm 27.4 27.7 17.8 55 6.2 SSE 13 22 7 12 1014.0 1011.8 0.0
26/04:00pm 27.8 27.1 17.3 52 6.7 SSE 17 28 9 15 1013.8 1011.6 0.0
26/03:30pm 27.7 27.4 18.3 56 6.1 SSW 17 20 9 11 1013.8 1011.6 0.0
26/03:00pm 28.4 28.3 18.8 56 6.3 SSW 17 22 9 12 1013.9 1011.7 0.0
26/02:30pm 28.0 28.7 18.8 57 6.0 W 13 20 7 11 1013.9 1011.7 0.0
26/02:00pm 28.8 29.8 18.7 54 6.6 W 11 20 6 11 1014.0 1011.8 0.0
26/01:30pm 29.0 30.0 20.2 59 5.9 SW 15 20 8 11 1014.3 1012.1 0.0
26/01:00pm 28.6 31.1 19.9 59 5.8 SSW 6 13 3 7 1014.5 1012.3 0.0
26/12:30pm 28.3 30.4 19.0 57 6.1 W 6 11 3 6 1015.2 1012.9 0.0
26/12:00pm 28.5 30.4 19.8 59 5.8 WSW 9 15 5 8 1015.7 1013.5 0.0
26/11:30am 27.2 29.1 18.6 59 5.6 WSW 6 9 3 5 1016.1 1013.9 0.0
26/11:00am 27.1 29.2 19.3 62 5.1 W 7 15 4 8 1016.8 1014.6 0.0
26/10:30am 26.0 28.2 19.1 65 4.5 SW 6 9 3 5 1017.1 1014.9 0.0
26/10:00am 24.9 27.7 19.7 73 3.4 SW 4 9 2 5 1017.4 1015.1 0.0
26/09:30am 23.5 25.6 19.3 77 2.7 SW 7 15 4 8 1017.8 1015.6 0.0
26/09:00am 21.9 23.7 18.8 82 2.0 SSW 7 11 4 6 1017.6 1015.4 0.0
26/08:30am 20.5 22.3 18.8 90 1.1 SW 7 9 4 5 1017.5 1015.2 0.0
26/08:00am 19.3 20.7 18.7 96 0.4 SSW 9 11 5 6 1017.4 1015.1 0.0
26/07:30am 18.0 20.7 17.8 99 0.1 CALM 0 7 0 4 1016.7 1014.5 0.0
26/07:00am 17.3 19.8 17.3 100 0.0 CALM 0 0 0 0 1016.5 1014.3 0.0
26/06:30am 17.1 19.5 17.1 100 0.0 CALM 0 0 0 0 1016.0 1013.8 0.0
26/06:00am 16.8 19.0 16.6 99 0.1 CALM 0 0 0 0 1015.8 1013.6 0.0
26/05:30am 16.0 17.9 15.8 99 0.1 CALM 0 0 0 0 1015.4 1013.1 0.0
26/05:00am 17.1 19.3 16.6 97 0.3 CALM 0 0 0 0 1015.1 1012.8 0.0
26/04:30am 15.7 17.6 15.7 100 0.0 CALM 0 0 0 0 1015.2 1012.9 0.0
26/04:00am 16.1 18.1 16.1 100 0.0 CALM 0 0 0 0 1014.7 1012.5 0.0
26/03:30am 16.8 19.0 16.6 99 0.1 CALM 0 0 0 0 1014.9 1012.7 0.0
26/03:00am 17.1 19.4 16.8 98 0.2 CALM 0 0 0 0 1015.2 1012.9 0.0
26/02:30am 17.0 19.4 17.0 100 0.0 CALM 0 0 0 0 1015.3 1013.0 0.0
26/02:00am 16.8 18.3 16.6 99 0.1 NNE 4 6 2 3 1015.4 1013.1 0.0
26/01:30am 17.6 20.1 17.3 98 0.2 CALM 0 0 0 0 1015.8 1013.6 0.0
26/01:00am 17.9 20.5 17.6 98 0.2 CALM 0 0 0 0 1016.0 1013.8 0.0
26/12:30am 18.1 20.7 17.6 97 0.3 CALM 0 0 0 0 1016.4 1014.2 0.0
26/12:00am 18.2 20.9 17.7 97 0.3 CALM 0 0 0 0 1016.7 1014.5 0.0
 
Date/Time
EST
Temp
°C
App
Temp
°C
Dew
Point
°C
Rel
Hum
%
Delta-T
°C
Wind Press
QNH
hPa
Press
MSL
hPa
Rain since
9am
mm
Dir  Spd
km/h
Gust
km/h
Spd
kts
Gust
kts
25/11:30pm 18.5 21.3 17.9 96 0.4 CALM 0 0 0 0 1016.9 1014.7 0.0
25/11:00pm 18.6 21.5 18.1 97 0.3 CALM 0 0 0 0 1017.3 1015.0 0.0
25/10:30pm 19.0 22.0 18.4 96 0.4 CALM 0 0 0 0 1017.4 1015.1 0.0
25/10:00pm 19.7 22.7 18.4 92 0.8 CALM 0 0 0 0 1017.7 1015.5 0.0
25/09:30pm 19.9 22.5 18.5 92 0.9 ENE 2 7 1 4 1017.7 1015.5 0.0
25/09:00pm 20.1 22.9 18.0 88 1.3 CALM 0 0 0 0 1017.6 1015.4 0.0
25/08:30pm 20.8 23.8 18.4 86 1.5 CALM 0 0 0 0 1017.4 1015.1 0.0
25/08:00pm 21.2 24.1 18.2 83 1.9 CALM 0 0 0 0 1016.9 1014.7 0.0
25/07:30pm 22.4 24.4 18.8 80 2.3 NE 6 9 3 5 1016.5 1014.3 0.0
25/07:00pm 22.6 25.7 18.7 78 2.5 CALM 0 0 0 0 1016.2 1014.0 0.0
25/06:30pm 23.1 26.4 19.1 78 2.6 CALM 0 0 0 0 1015.9 1013.7 0.0
25/06:00pm 23.5 26.6 19.5 78 2.6 ESE 2 7 1 4 1015.5 1013.2 0.0
25/05:30pm 25.1 27.2 19.3 70 3.8 SSE 7 13 4 7 1015.4 1013.1 0.0
25/05:00pm 26.0 28.0 19.1 65 4.5 SSE 7 13 4 7 1014.9 1012.7 0.0
25/04:30pm 26.5 28.1 19.2 64 4.8 SE 9 15 5 8 1014.7 1012.5 0.0
25/04:00pm 26.4 27.9 18.9 63 4.9 SE 9 13 5 7 1014.9 1012.7 0.0
25/03:30pm 26.5 27.9 18.7 62 5.1 ESE 9 13 5 7 1014.8 1012.6 0.0
25/03:00pm 26.5 28.3 18.7 62 5.1 SE 7 13 4 7 1014.9 1012.7 0.0
25/02:30pm 26.7 28.3 19.2 63 4.9 SE 9 15 5 8 1015.2 1012.9 0.0
25/02:00pm 26.6 27.8 19.1 63 4.9 S 11 17 6 9 1015.4 1013.1 0.0
25/01:30pm 26.8 27.7 19.2 63 5.0 SSE 13 22 7 12 1015.8 1013.6 0.0
25/01:00pm 26.9 28.3 19.5 64 4.9 SE 11 17 6 9 1016.0 1013.8 0.0
25/12:30pm 26.0 28.1 18.9 65 4.6 SSW 6 13 3 7 1016.4 1014.2 0.0
25/12:00pm 25.2 26.9 18.4 66 4.4 E 7 15 4 8 1016.9 1014.7 0.0
25/11:30am 25.5 26.6 18.9 67 4.3 S 11 17 6 9 1017.5 1015.2 0.0
25/11:00am 24.5 25.6 18.9 71 3.6 S 11 19 6 10 1018.0 1015.8 0.0
25/10:30am 23.8 25.0 18.3 71 3.5 SE 9 20 5 11 1018.2 1016.0 0.0
25/10:00am 23.1 23.4 17.9 72 3.3 SSE 13 26 7 14 1018.5 1016.3 0.0
25/09:30am 22.7 23.0 17.8 74 3.1 SSE 13 22 7 12 1018.5 1016.3 0.0
25/09:00am 21.9 21.7 17.6 76 2.7 SSE 15 24 8 13 1018.4 1016.2 0.0
25/08:30am 20.8 20.1 17.3 80 2.2 SSE 17 26 9 14 1018.4 1016.2 0.0
25/08:00am 20.2 19.9 17.3 83 1.8 SSE 15 22 8 12 1018.3 1016.1 0.0
25/07:30am 19.3 18.9 17.2 88 1.3 SSE 15 22 8 12 1018.1 1015.9 0.0
25/07:00am 18.2 18.2 17.1 93 0.7 SSE 13 19 7 10 1017.9 1015.7 0.0
25/06:30am 17.5 17.3 16.8 96 0.4 SSE 13 24 7 13 1017.6 1015.4 0.0
25/06:00am 17.1 16.9 16.6 97 0.3 SSE 13 19 7 10 1017.4 1015.1 0.0
25/05:30am 17.2 17.0 16.7 97 0.3 SSE 13 19 7 10 1017.1 1014.9 0.0
25/05:00am 17.2 17.3 16.5 96 0.4 SSE 11 19 6 10 1017.0 1014.8 0.0
25/04:30am 17.4 17.2 16.7 96 0.4 SSE 13 20 7 11 1016.8 1014.6 0.0
25/04:00am 17.6 17.4 16.8 95 0.5 SSE 13 22 7 12 1016.5 1014.3 0.0
25/03:30am 17.5 16.9 16.7 95 0.5 SSE 15 22 8 12 1016.6 1014.4 0.0
25/03:00am 17.8 17.6 16.8 94 0.6 SSE 13 20 7 11 1016.6 1014.4 0.0
25/02:30am 17.9 17.0 16.9 94 0.6 SSE 17 28 9 15 1016.9 1014.7 0.0
25/02:00am 17.9 17.0 16.9 94 0.6 SSE 17 24 9 13 1017.0 1014.8 0.0
25/01:30am 18.0 17.2 17.0 94 0.6 SSE 17 24 9 13 1017.4 1015.1 0.0
25/01:00am 18.4 17.6 17.1 92 0.8 SSE 17 26 9 14 1017.8 1015.6 0.0
25/12:30am 18.7 17.4 16.9 89 1.1 SSE 19 30 10 16 1018.0 1015.8 0.0
25/12:00am 18.8 18.3 17.0 89 1.1 SSE 15 24 8 13 1018.3 1016.1 0.0
 
Date/Time
EST
Temp
°C
App
Temp
°C
Dew
Point
°C
Rel
Hum
%
Delta-T
°C
Wind Press
QNH
hPa
Press
MSL
hPa
Rain since
9am
mm
Dir  Spd
km/h
Gust
km/h
Spd
kts
Gust
kts
24/11:30pm 18.9 17.7 17.0 89 1.2 SSE 19 26 10 14 1018.4 1016.2 0.0
24/11:00pm 18.9 19.2 17.0 89 1.2 SE 11 20 6 11 1018.3 1016.1 0.0
24/10:30pm 18.9 18.4 16.8 87 1.3 SSE 15 22 8 12 1018.8 1016.6 0.0
24/10:00pm 18.8 18.0 17.2 90 1.0 SSE 17 26 9 14 1018.7 1016.5 0.0
24/09:30pm 18.8 18.5 17.3 91 0.9 SSE 15 22 8 12 1018.7 1016.5 0.0
24/09:00pm 19.0 18.6 17.2 89 1.1 SSE 15 22 8 12 1018.5 1016.3 0.0
24/08:30pm 19.1 18.7 17.2 89 1.2 SSE 15 24 8 13 1018.2 1016.0 0.0
24/08:00pm 19.3 18.5 17.2 88 1.3 SSE 17 30 9 16 1018.1 1015.9 0.0
24/07:30pm 19.6 18.4 17.5 88 1.3 SSE 20 30 11 16 1018.1 1015.9 0.0
24/07:00pm 19.9 19.0 17.8 88 1.3 SE 19 30 10 16 1017.3 1015.0 0.0
24/06:30pm 21.4 21.1 19.2 87 1.4 SE 19 30 10 16 1016.7 1014.5 0.0
24/06:00pm 22.5 22.1 19.3 82 2.1 SE 20 32 11 17 1016.1 1013.9 0.0
24/05:30pm 24.4 25.0 19.5 74 3.2 SE 15 30 8 16 1015.8 1013.6 0.0
24/05:00pm 25.1 25.0 19.5 71 3.7 SE 19 26 10 14 1015.1 1012.8 0.0
24/04:30pm 25.7 25.4 19.6 69 4.0 SSE 20 33 11 18 1014.7 1012.5 0.0
24/04:00pm 26.9 26.9 19.8 65 4.7 SSE 19 32 10 17 1014.5 1012.3 0.0
24/03:30pm 27.5 27.8 18.8 59 5.7 SE 15 26 8 14 1014.6 1012.4 0.0
24/03:00pm 27.2 27.6 18.9 60 5.4 SE 15 24 8 13 1014.6 1012.4 0.0
24/02:30pm 27.3 27.4 19.2 61 5.3 SE 17 28 9 15 1014.8 1012.6 0.0
24/02:00pm 27.2 27.6 19.1 61 5.3 SE 15 24 8 13 1015.1 1012.8 0.0
24/01:30pm 27.7 28.7 19.5 61 5.4 SE 13 22 7 12 1015.6 1013.3 0.0
24/01:00pm 26.8 27.5 19.7 65 4.7 SSE 15 22 8 12 1016.0 1013.8 0.0
24/12:30pm 27.2 28.5 19.3 62 5.2 SE 11 20 6 11 1016.3 1014.1 0.0
24/12:00pm 26.5 28.0 18.8 62 5.0 SSE 9 17 5 9 1016.9 1014.7 0.0
24/11:30am 26.4 28.1 19.4 65 4.6 SSE 9 20 5 11 1017.5 1015.2 0.0
24/11:00am 25.4 27.3 18.9 67 4.2 S 7 13 4 7 1017.9 1015.7 0.0
24/10:30am 26.0 28.1 19.4 67 4.3 SE 7 13 4 7 1017.9 1015.7 0.0
24/10:00am 24.5 27.3 18.8 70 3.7 S 2 7 1 4 1018.2 1016.0 0.0
24/09:30am 23.9 26.2 19.5 76 2.9 SE 6 11 3 6 1018.0 1015.8 0.0
24/09:00am 23.2 25.2 19.2 78 2.6 SE 7 11 4 6 1018.3 1016.1 0.0
24/08:30am 21.9 23.8 18.9 83 1.9 ESE 7 13 4 7 1018.0 1015.8 0.0
24/08:00am 20.5 23.6 19.6 95 0.6 NE 2 7 1 4 1017.8 1015.6 0.0
24/07:30am 18.9 22.1 18.9 100 0.0 CALM 0 0 0 0 1017.6 1015.4 0.0
24/07:00am 18.4 20.1 18.4 100 0.0 NE 7 9 4 5 1016.8 1014.6 0.0
24/06:30am 18.4 21.4 18.4 100 0.0 CALM 0 0 0 0 1016.9 1014.7 0.0
24/06:00am 18.3 20.5 18.3 100 0.0 NE 4 7 2 4 1016.8 1014.6 0.0
24/05:30am 18.1 21.0 18.1 100 0.0 CALM 0 0 0 0 1016.8 1014.6 0.0
24/05:00am 18.2 21.1 18.2 100 0.0 CALM 0 0 0 0 1016.3 1014.1 0.0
24/04:30am 18.2 21.1 18.2 100 0.0 CALM 0 0 0 0 1016.0 1013.8 0.0
24/04:00am 17.8 20.5 17.8 100 0.0 CALM 0 0 0 0 1016.0 1013.8 0.0
24/03:30am 17.9 20.7 17.9 100 0.0 CALM 0 0 0 0 1015.9 1013.7 0.0
24/03:00am 18.5 21.4 18.3 99 0.1 CALM 0 0 0 0 1016.0 1013.8 0.0
24/02:30am 18.5 21.4 18.2 98 0.2 CALM 0 0 0 0 1016.5 1014.3 0.0
24/02:00am 18.9 22.0 18.7 99 0.1 CALM 0 0 0 0 1016.8 1014.6 0.0
24/01:30am 19.1 21.5 18.9 99 0.1 NE 4 7 2 4 1016.9 1014.7 0.0
24/01:00am 19.3 22.6 19.0 98 0.2 CALM 0 0 0 0 1017.1 1014.9 0.0
24/12:30am 19.2 22.4 18.9 98 0.2 CALM 0 0 0 0 1017.7 1015.5 0.0
24/12:00am 19.3 22.6 19.1 99 0.1 CALM 0 0 0 0 1017.7 1015.5 0.0
 
Date/Time
EST
Temp
°C
App
Temp
°C
Dew
Point
°C
Rel
Hum
%
Delta-T
°C
Wind Press
QNH
hPa
Press
MSL
hPa
Rain since
9am
mm
Dir  Spd
km/h
Gust
km/h
Spd
kts
Gust
kts
23/11:30pm 19.1 22.3 18.9 99 0.1 CALM 0 0 0 0 1017.7 1015.5 0.0
23/11:00pm 19.1 22.2 18.6 97 0.3 CALM 0 0 0 0 1017.6 1015.4 0.0
23/10:30pm 19.4 22.4 18.5 94 0.6 CALM 0 0 0 0 1018.0 1015.8 0.0
23/10:00pm 19.7 22.9 18.9 95 0.5 CALM 0 0 0 0 1018.2 1016.0 0.0
23/09:30pm 20.8 24.1 19.2 90 1.0 CALM 0 0 0 0 1018.1 1015.9 0.0
23/09:00pm 21.2 24.2 19.3 89 1.2 ESE 2 7 1 4 1018.0 1015.8 0.0
23/08:30pm 21.7 25.2 19.5 87 1.4 CALM 0 13 0 7 1017.8 1015.6 0.0
23/08:00pm 21.9 25.0 19.6 87 1.5 SE 2 9 1 5 1017.6 1015.4 0.0
23/07:30pm 22.0 25.8 20.2 89 1.2 CALM 0 6 0 3 1017.4 1015.1 0.0

Latest Capital City Observations: Canberra | Sydney | Melbourne | Brisbane | Adelaide | Perth | Hobart | Darwin

Other Formats:

Comma delimited format used in spreadsheet applications
http://www.bom.gov.au/fwo/IDQ60901/IDQ60901.94555.axf

JavaScript Object Notation format (JSON) in row-major order
http://www.bom.gov.au/fwo/IDQ60901/IDQ60901.94555.json